sensor_id;sensor_type;location;lat;lon;timestamp;temperature;humidity
63976;DHT22;50167;47.958;21.780;2023-12-20T00:00:02;5.89;65.00
63976;DHT22;50167;47.958;21.780;2023-12-20T00:02:28;6.72;63.06
63976;DHT22;50167;47.958;21.780;2023-12-20T00:04:55;7.34;61.30
63976;DHT22;50167;47.958;21.780;2023-12-20T00:07:21;7.76;59.21
63976;DHT22;50167;47.958;21.780;2023-12-20T00:09:47;7.21;56.46
63976;DHT22;50167;47.958;21.780;2023-12-20T00:12:14;5.98;58.17
63976;DHT22;50167;47.958;21.780;2023-12-20T00:14:40;4.97;59.00
63976;DHT22;50167;47.958;21.780;2023-12-20T00:17:06;5.60;65.14
63976;DHT22;50167;47.958;21.780;2023-12-20T00:19:33;6.45;63.05
63976;DHT22;50167;47.958;21.780;2023-12-20T00:21:59;6.80;61.27
63976;DHT22;50167;47.958;21.780;2023-12-20T00:24:25;7.15;61.28
63976;DHT22;50167;47.958;21.780;2023-12-20T00:26:52;7.55;60.16
63976;DHT22;50167;47.958;21.780;2023-12-20T00:29:18;7.90;59.27
63976;DHT22;50167;47.958;21.780;2023-12-20T00:31:44;7.41;56.35
63976;DHT22;50167;47.958;21.780;2023-12-20T00:34:10;6.25;56.89
63976;DHT22;50167;47.958;21.780;2023-12-20T00:36:37;5.33;58.59
63976;DHT22;50167;47.958;21.780;2023-12-20T00:39:03;5.21;63.40
63976;DHT22;50167;47.958;21.780;2023-12-20T00:41:30;6.24;65.09
63976;DHT22;50167;47.958;21.780;2023-12-20T00:43:56;7.10;62.88
63976;DHT22;50167;47.958;21.780;2023-12-20T00:46:22;7.60;60.21
63976;DHT22;50167;47.958;21.780;2023-12-20T00:48:48;7.79;58.93
63976;DHT22;50167;47.958;21.780;2023-12-20T00:51:14;7.21;56.11
63976;DHT22;50167;47.958;21.780;2023-12-20T00:53:41;6.05;57.28
63976;DHT22;50167;47.958;21.780;2023-12-20T00:56:07;5.08;58.97
63976;DHT22;50167;47.958;21.780;2023-12-20T00:58:34;5.59;65.36
63976;DHT22;50167;47.958;21.780;2023-12-20T01:01:00;6.59;64.10
63976;DHT22;50167;47.958;21.780;2023-12-20T01:03:26;7.10;61.37
63976;DHT22;50167;47.958;21.780;2023-12-20T01:05:52;7.60;59.88
63976;DHT22;50167;47.958;21.780;2023-12-20T01:08:18;7.36;56.82
63976;DHT22;50167;47.958;21.780;2023-12-20T01:10:45;6.15;57.17
63976;DHT22;50167;47.958;21.780;2023-12-20T01:13:12;5.22;59.02
63976;DHT22;50167;47.958;21.780;2023-12-20T01:15:38;5.53;65.12
63976;DHT22;50167;47.958;21.780;2023-12-20T01:18:05;6.69;63.75
63976;DHT22;50167;47.958;21.780;2023-12-20T01:20:31;7.29;61.32
63976;DHT22;50167;47.958;21.780;2023-12-20T01:22:57;7.84;59.61
63976;DHT22;50167;47.958;21.780;2023-12-20T01:25:23;7.39;56.23
63976;DHT22;50167;47.958;21.780;2023-12-20T01:27:50;6.11;56.55
63976;DHT22;50167;47.958;21.780;2023-12-20T01:30:16;5.10;58.55
63976;DHT22;50167;47.958;21.780;2023-12-20T01:32:42;5.67;65.24
63976;DHT22;50167;47.958;21.780;2023-12-20T01:35:09;6.42;63.58
63976;DHT22;50167;47.958;21.780;2023-12-20T01:37:35;6.97;61.53
63976;DHT22;50167;47.958;21.780;2023-12-20T01:40:01;7.31;60.80
63976;DHT22;50167;47.958;21.780;2023-12-20T01:42:28;7.62;59.88
63976;DHT22;50167;47.958;21.780;2023-12-20T01:44:54;7.89;58.19
63976;DHT22;50167;47.958;21.780;2023-12-20T01:47:21;6.94;56.30
63976;DHT22;50167;47.958;21.780;2023-12-20T01:49:49;5.77;57.20
63976;DHT22;50167;47.958;21.780;2023-12-20T01:52:16;5.04;60.23
63976;DHT22;50167;47.958;21.780;2023-12-20T01:54:43;5.89;65.02
63976;DHT22;50167;47.958;21.780;2023-12-20T01:57:10;6.56;62.67
63976;DHT22;50167;47.958;21.780;2023-12-20T01:59:39;6.98;61.17
63976;DHT22;50167;47.958;21.780;2023-12-20T02:02:07;7.24;59.87
63976;DHT22;50167;47.958;21.780;2023-12-20T02:04:34;6.91;57.50
63976;DHT22;50167;47.958;21.780;2023-12-20T02:07:03;5.79;57.97
63976;DHT22;50167;47.958;21.780;2023-12-20T02:09:29;4.98;61.07
63976;DHT22;50167;47.958;21.780;2023-12-20T02:11:55;5.83;64.81
63976;DHT22;50167;47.958;21.780;2023-12-20T02:14:21;6.49;62.92
63976;DHT22;50167;47.958;21.780;2023-12-20T02:16:48;6.79;60.81
63976;DHT22;50167;47.958;21.780;2023-12-20T02:19:14;7.04;60.66
63976;DHT22;50167;47.958;21.780;2023-12-20T02:21:41;7.35;59.70
63976;DHT22;50167;47.958;21.780;2023-12-20T02:24:07;6.96;56.77
63976;DHT22;50167;47.958;21.780;2023-12-20T02:26:34;5.74;57.62
63976;DHT22;50167;47.958;21.780;2023-12-20T02:29:00;5.01;60.99
63976;DHT22;50167;47.958;21.780;2023-12-20T02:31:27;5.77;64.54
63976;DHT22;50167;47.958;21.780;2023-12-20T02:33:53;6.29;62.88
63976;DHT22;50167;47.958;21.780;2023-12-20T02:36:19;6.75;62.42
63976;DHT22;50167;47.958;21.780;2023-12-20T02:38:46;7.12;61.32
63976;DHT22;50167;47.958;21.780;2023-12-20T02:41:12;7.49;59.78
63976;DHT22;50167;47.958;21.780;2023-12-20T02:43:39;7.19;56.62
63976;DHT22;50167;47.958;21.780;2023-12-20T02:46:05;5.96;57.11
63976;DHT22;50167;47.958;21.780;2023-12-20T02:48:31;5.04;59.07
63976;DHT22;50167;47.958;21.780;2023-12-20T02:50:57;5.79;65.60
63976;DHT22;50167;47.958;21.780;2023-12-20T02:53:24;6.82;63.53
63976;DHT22;50167;47.958;21.780;2023-12-20T02:55:50;7.34;60.78
63976;DHT22;50167;47.958;21.780;2023-12-20T02:58:16;7.63;59.28
63976;DHT22;50167;47.958;21.780;2023-12-20T03:00:43;7.07;56.50
63976;DHT22;50167;47.958;21.780;2023-12-20T03:03:10;5.87;56.88
63976;DHT22;50167;47.958;21.780;2023-12-20T03:05:36;5.03;60.39
63976;DHT22;50167;47.958;21.780;2023-12-20T03:08:02;5.69;64.85
63976;DHT22;50167;47.958;21.780;2023-12-20T03:10:29;6.55;62.20
63976;DHT22;50167;47.958;21.780;2023-12-20T03:12:55;6.91;60.47
63976;DHT22;50167;47.958;21.780;2023-12-20T03:15:21;7.08;58.86
63976;DHT22;50167;47.958;21.780;2023-12-20T03:17:47;6.19;57.23
63976;DHT22;50167;47.958;21.780;2023-12-20T03:20:13;5.04;59.12
63976;DHT22;50167;47.958;21.780;2023-12-20T03:22:39;5.42;64.18
63976;DHT22;50167;47.958;21.780;2023-12-20T03:25:06;6.39;63.06
63976;DHT22;50167;47.958;21.780;2023-12-20T03:27:32;6.97;60.25
63976;DHT22;50167;47.958;21.780;2023-12-20T03:29:58;7.19;58.79
63976;DHT22;50167;47.958;21.780;2023-12-20T03:32:25;6.35;56.70
63976;DHT22;50167;47.958;21.780;2023-12-20T03:34:51;5.08;57.81
63976;DHT22;50167;47.958;21.780;2023-12-20T03:37:17;5.43;64.31
63976;DHT22;50167;47.958;21.780;2023-12-20T03:39:43;6.21;62.03
63976;DHT22;50167;47.958;21.780;2023-12-20T03:42:09;6.61;61.31
63976;DHT22;50167;47.958;21.780;2023-12-20T03:44:39;7.01;59.50
63976;DHT22;50167;47.958;21.780;2023-12-20T03:47:06;6.42;56.97
63976;DHT22;50167;47.958;21.780;2023-12-20T03:49:32;5.24;59.77
63976;DHT22;50167;47.958;21.780;2023-12-20T03:51:58;5.25;64.06
63976;DHT22;50167;47.958;21.780;2023-12-20T03:54:24;6.18;63.50
63976;DHT22;50167;47.958;21.780;2023-12-20T03:56:50;6.79;60.89
63976;DHT22;50167;47.958;21.780;2023-12-20T03:59:18;7.00;59.80
63976;DHT22;50167;47.958;21.780;2023-12-20T04:01:44;7.21;59.31
63976;DHT22;50167;47.958;21.780;2023-12-20T04:04:13;6.70;56.46
63976;DHT22;50167;47.958;21.780;2023-12-20T04:06:39;5.50;56.37
63976;DHT22;50167;47.958;21.780;2023-12-20T04:09:05;5.05;61.79
63976;DHT22;50167;47.958;21.780;2023-12-20T04:11:31;6.07;63.67
63976;DHT22;50167;47.958;21.780;2023-12-20T04:13:58;6.70;61.72
63976;DHT22;50167;47.958;21.780;2023-12-20T04:16:24;6.98;59.87
63976;DHT22;50167;47.958;21.780;2023-12-20T04:18:50;6.65;56.93
63976;DHT22;50167;47.958;21.780;2023-12-20T04:21:16;5.49;57.69
63976;DHT22;50167;47.958;21.780;2023-12-20T04:23:42;4.98;62.64
63976;DHT22;50167;47.958;21.780;2023-12-20T04:26:08;5.81;64.13
63976;DHT22;50167;47.958;21.780;2023-12-20T04:28:35;6.50;62.43
63976;DHT22;50167;47.958;21.780;2023-12-20T04:31:01;6.91;60.50
63976;DHT22;50167;47.958;21.780;2023-12-20T04:33:27;7.08;59.77
63976;DHT22;50167;47.958;21.780;2023-12-20T04:35:53;6.79;57.38
63976;DHT22;50167;47.958;21.780;2023-12-20T04:38:19;5.70;57.58
63976;DHT22;50167;47.958;21.780;2023-12-20T04:40:45;5.00;60.26
63976;DHT22;50167;47.958;21.780;2023-12-20T04:43:12;5.96;64.00
63976;DHT22;50167;47.958;21.780;2023-12-20T04:45:38;6.83;61.20
63976;DHT22;50167;47.958;21.780;2023-12-20T04:48:04;7.19;59.61
63976;DHT22;50167;47.958;21.780;2023-12-20T04:50:31;6.83;56.61
63976;DHT22;50167;47.958;21.780;2023-12-20T04:52:57;5.66;56.99
63976;DHT22;50167;47.958;21.780;2023-12-20T04:55:23;4.97;59.75
63976;DHT22;50167;47.958;21.780;2023-12-20T04:57:50;5.87;64.40
63976;DHT22;50167;47.958;21.780;2023-12-20T05:00:16;6.48;62.33
63976;DHT22;50167;47.958;21.780;2023-12-20T05:02:43;6.75;60.90
63976;DHT22;50167;47.958;21.780;2023-12-20T05:05:09;6.70;60.32
63976;DHT22;50167;47.958;21.780;2023-12-20T05:07:35;6.79;60.38
63976;DHT22;50167;47.958;21.780;2023-12-20T05:10:03;6.83;59.38
63976;DHT22;50167;47.958;21.780;2023-12-20T05:12:30;6.25;57.45
63976;DHT22;50167;47.958;21.780;2023-12-20T05:14:57;5.07;57.89
63976;DHT22;50167;47.958;21.780;2023-12-20T05:17:24;5.36;63.98
63976;DHT22;50167;47.958;21.780;2023-12-20T05:19:50;6.12;62.43
63976;DHT22;50167;47.958;21.780;2023-12-20T05:22:16;6.26;61.27
63976;DHT22;50167;47.958;21.780;2023-12-20T05:24:42;6.29;61.03
63976;DHT22;50167;47.958;21.780;2023-12-20T05:27:09;6.31;60.70
63976;DHT22;50167;47.958;21.780;2023-12-20T05:29:35;6.43;60.18
63976;DHT22;50167;47.958;21.780;2023-12-20T05:32:02;6.42;59.99
63976;DHT22;50167;47.958;21.780;2023-12-20T05:34:30;6.72;60.50
63976;DHT22;50167;47.958;21.780;2023-12-20T05:36:58;7.04;60.33
63976;DHT22;50167;47.958;21.780;2023-12-20T05:39:24;7.28;59.31
63976;DHT22;50167;47.958;21.780;2023-12-20T05:41:50;6.76;57.13
63976;DHT22;50167;47.958;21.780;2023-12-20T05:44:16;5.66;57.38
63976;DHT22;50167;47.958;21.780;2023-12-20T05:46:42;4.97;61.08
63976;DHT22;50167;47.958;21.780;2023-12-20T05:49:09;5.80;64.43
63976;DHT22;50167;47.958;21.780;2023-12-20T05:51:36;6.67;62.95
63976;DHT22;50167;47.958;21.780;2023-12-20T05:54:02;7.18;60.27
63976;DHT22;50167;47.958;21.780;2023-12-20T05:56:30;7.43;58.49
63976;DHT22;50167;47.958;21.780;2023-12-20T05:58:56;6.80;55.18
63976;DHT22;50167;47.958;21.780;2023-12-20T06:01:22;5.59;56.02
63976;DHT22;50167;47.958;21.780;2023-12-20T06:03:48;4.94;60.47
63976;DHT22;50167;47.958;21.780;2023-12-20T06:06:15;5.69;63.89
63976;DHT22;50167;47.958;21.780;2023-12-20T06:08:41;6.56;63.10
63976;DHT22;50167;47.958;21.780;2023-12-20T06:11:09;7.15;60.45
63976;DHT22;50167;47.958;21.780;2023-12-20T06:13:35;7.49;59.42
63976;DHT22;50167;47.958;21.780;2023-12-20T06:16:01;6.98;56.11
63976;DHT22;50167;47.958;21.780;2023-12-20T06:18:27;5.76;56.61
63976;DHT22;50167;47.958;21.780;2023-12-20T06:20:54;4.90;59.73
63976;DHT22;50167;47.958;21.780;2023-12-20T06:23:21;5.36;63.26
63976;DHT22;50167;47.958;21.780;2023-12-20T06:25:47;6.04;62.19
63976;DHT22;50167;47.958;21.780;2023-12-20T06:28:13;6.53;61.09
63976;DHT22;50167;47.958;21.780;2023-12-20T06:30:40;6.76;59.60
63976;DHT22;50167;47.958;21.780;2023-12-20T06:33:07;6.32;56.86
63976;DHT22;50167;47.958;21.780;2023-12-20T06:35:33;5.11;56.70
63976;DHT22;50167;47.958;21.780;2023-12-20T06:37:59;5.07;62.01
63976;DHT22;50167;47.958;21.780;2023-12-20T06:40:27;5.26;59.75
63976;DHT22;50167;47.958;21.780;2023-12-20T06:42:53;5.08;62.01
63976;DHT22;50167;47.958;21.780;2023-12-20T06:45:20;5.69;62.13
63976;DHT22;50167;47.958;21.780;2023-12-20T06:47:46;6.14;61.52
63976;DHT22;50167;47.958;21.780;2023-12-20T06:50:12;6.53;60.37
63976;DHT22;50167;47.958;21.780;2023-12-20T06:52:38;6.76;58.54
63976;DHT22;50167;47.958;21.780;2023-12-20T06:55:05;5.96;55.98
63976;DHT22;50167;47.958;21.780;2023-12-20T06:57:31;4.93;57.47
63976;DHT22;50167;47.958;21.780;2023-12-20T06:59:59;5.11;61.16
63976;DHT22;50167;47.958;21.780;2023-12-20T07:02:26;5.28;59.43
63976;DHT22;50167;47.958;21.780;2023-12-20T07:04:54;5.14;61.73
63976;DHT22;50167;47.958;21.780;2023-12-20T07:07:21;5.18;58.79
63976;DHT22;50167;47.958;21.780;2023-12-20T07:09:49;5.18;61.75
63976;DHT22;50167;47.958;21.780;2023-12-20T07:12:15;5.18;59.01
63976;DHT22;50167;47.958;21.780;2023-12-20T07:14:42;5.08;61.54
63976;DHT22;50167;47.958;21.780;2023-12-20T07:17:08;5.21;59.87
63976;DHT22;50167;47.958;21.780;2023-12-20T07:19:36;5.07;61.16
63976;DHT22;50167;47.958;21.780;2023-12-20T07:22:03;5.22;59.65
63976;DHT22;50167;47.958;21.780;2023-12-20T07:24:29;5.08;60.69
63976;DHT22;50167;47.958;21.780;2023-12-20T07:26:55;5.25;60.36
63976;DHT22;50167;47.958;21.780;2023-12-20T07:29:22;4.95;60.02
63976;DHT22;50167;47.958;21.780;2023-12-20T07:31:48;5.31;61.31
63976;DHT22;50167;47.958;21.780;2023-12-20T07:34:14;5.03;58.88
63976;DHT22;50167;47.958;21.780;2023-12-20T07:36:40;5.28;62.05
63976;DHT22;50167;47.958;21.780;2023-12-20T07:39:06;5.79;60.99
63976;DHT22;50167;47.958;21.780;2023-12-20T07:41:33;6.04;60.58
63976;DHT22;50167;47.958;21.780;2023-12-20T07:43:59;6.29;59.36
63976;DHT22;50167;47.958;21.780;2023-12-20T07:46:25;5.86;57.31
63976;DHT22;50167;47.958;21.780;2023-12-20T07:48:51;4.80;58.68
63976;DHT22;50167;47.958;21.780;2023-12-20T07:51:18;4.87;61.48
63976;DHT22;50167;47.958;21.780;2023-12-20T07:53:44;5.36;61.58
63976;DHT22;50167;47.958;21.780;2023-12-20T07:56:19;5.01;58.88
63976;DHT22;50167;47.958;21.780;2023-12-20T07:58:46;5.29;61.72
63976;DHT22;50167;47.958;21.780;2023-12-20T08:01:16;5.19;59.40
63976;DHT22;50167;47.958;21.780;2023-12-20T08:03:44;5.39;62.86
63976;DHT22;50167;47.958;21.780;2023-12-20T08:06:10;6.11;62.39
63976;DHT22;50167;47.958;21.780;2023-12-20T08:08:36;6.31;59.67
63976;DHT22;50167;47.958;21.780;2023-12-20T08:11:03;5.80;59.45
63976;DHT22;50167;47.958;21.780;2023-12-20T08:13:29;4.88;58.93
63976;DHT22;50167;47.958;21.780;2023-12-20T08:15:55;5.33;63.15
63976;DHT22;50167;47.958;21.780;2023-12-20T08:18:22;5.84;61.72
63976;DHT22;50167;47.958;21.780;2023-12-20T08:20:49;6.26;60.96
63976;DHT22;50167;47.958;21.780;2023-12-20T08:23:15;6.26;60.43
63976;DHT22;50167;47.958;21.780;2023-12-20T08:25:42;6.48;59.86
63976;DHT22;50167;47.958;21.780;2023-12-20T08:28:08;6.61;60.10
63976;DHT22;50167;47.958;21.780;2023-12-20T08:30:34;6.32;58.15
63976;DHT22;50167;47.958;21.780;2023-12-20T08:33:00;5.29;58.60
63976;DHT22;50167;47.958;21.780;2023-12-20T08:35:27;4.93;61.46
63976;DHT22;50167;47.958;21.780;2023-12-20T08:37:53;5.26;63.52
63976;DHT22;50167;47.958;21.780;2023-12-20T08:40:19;5.80;63.60
63976;DHT22;50167;47.958;21.780;2023-12-20T08:42:46;6.08;62.41
63976;DHT22;50167;47.958;21.780;2023-12-20T08:45:12;6.31;61.51
63976;DHT22;50167;47.958;21.780;2023-12-20T08:47:38;6.38;61.07
63976;DHT22;50167;47.958;21.780;2023-12-20T08:50:07;6.50;60.99
63976;DHT22;50167;47.958;21.780;2023-12-20T08:52:33;6.57;60.83
63976;DHT22;50167;47.958;21.780;2023-12-20T08:54:59;6.77;60.89
63976;DHT22;50167;47.958;21.780;2023-12-20T08:57:26;6.96;60.68
63976;DHT22;50167;47.958;21.780;2023-12-20T08:59:52;7.11;60.42
63976;DHT22;50167;47.958;21.780;2023-12-20T09:02:19;7.19;59.91
63976;DHT22;50167;47.958;21.780;2023-12-20T09:04:45;7.36;59.78
63976;DHT22;50167;47.958;21.780;2023-12-20T09:07:23;7.45;59.05
63976;DHT22;50167;47.958;21.780;2023-12-20T09:09:50;6.70;59.04
63976;DHT22;50167;47.958;21.780;2023-12-20T09:12:20;5.59;58.71
63976;DHT22;50167;47.958;21.780;2023-12-20T09:14:47;5.00;63.22
63976;DHT22;50167;47.958;21.780;2023-12-20T09:17:15;5.81;64.93
63976;DHT22;50167;47.958;21.780;2023-12-20T09:19:43;6.49;63.90
63976;DHT22;50167;47.958;21.780;2023-12-20T09:22:09;7.06;62.78
63976;DHT22;50167;47.958;21.780;2023-12-20T09:24:36;7.42;61.28
63976;DHT22;50167;47.958;21.780;2023-12-20T09:27:02;7.66;59.92
63976;DHT22;50167;47.958;21.780;2023-12-20T09:29:29;7.69;59.04
63976;DHT22;50167;47.958;21.780;2023-12-20T09:31:55;7.11;56.68
63976;DHT22;50167;47.958;21.780;2023-12-20T09:34:23;6.17;57.73
63976;DHT22;50167;47.958;21.780;2023-12-20T09:36:52;5.42;59.79
63976;DHT22;50167;47.958;21.780;2023-12-20T09:39:20;5.31;63.73
63976;DHT22;50167;47.958;21.780;2023-12-20T09:42:00;6.57;65.64
63976;DHT22;50167;47.958;21.780;2023-12-20T09:44:21;7.77;63.00
63976;DHT22;50167;47.958;21.780;2023-12-20T09:46:50;8.39;59.39
63976;DHT22;50167;47.958;21.780;2023-12-20T09:49:19;7.93;55.96
63976;DHT22;50167;47.958;21.780;2023-12-20T09:51:46;6.86;56.35
63976;DHT22;50167;47.958;21.780;2023-12-20T09:54:15;5.97;58.38
63976;DHT22;50167;47.958;21.780;2023-12-20T09:56:41;5.29;59.88
63976;DHT22;50167;47.958;21.780;2023-12-20T09:59:08;5.65;65.63
63976;DHT22;50167;47.958;21.780;2023-12-20T10:01:34;6.76;64.03
63976;DHT22;50167;47.958;21.780;2023-12-20T10:04:05;7.52;62.05
63976;DHT22;50167;47.958;21.780;2023-12-20T10:06:33;7.90;60.00
63976;DHT22;50167;47.958;21.780;2023-12-20T10:08:59;8.28;59.26
63976;DHT22;50167;47.958;21.780;2023-12-20T10:11:25;7.98;56.08
63976;DHT22;50167;47.958;21.780;2023-12-20T10:13:52;7.03;56.50
63976;DHT22;50167;47.958;21.780;2023-12-20T10:16:24;6.19;58.10
63976;DHT22;50167;47.958;21.780;2023-12-20T10:18:48;5.60;59.52
63976;DHT22;50167;47.958;21.780;2023-12-20T10:21:14;5.12;60.58
63976;DHT22;50167;47.958;21.780;2023-12-20T10:23:40;6.04;64.90
63976;DHT22;50167;47.958;21.780;2023-12-20T10:26:07;7.00;62.76
63976;DHT22;50167;47.958;21.780;2023-12-20T10:28:34;7.55;61.31
63976;DHT22;50167;47.958;21.780;2023-12-20T10:31:00;7.93;59.28
63976;DHT22;50167;47.958;21.780;2023-12-20T10:33:27;7.49;57.08
63976;DHT22;50167;47.958;21.780;2023-12-20T10:35:58;6.35;57.63
63976;DHT22;50167;47.958;21.780;2023-12-20T10:38:25;5.52;58.77
63976;DHT22;50167;47.958;21.780;2023-12-20T10:40:56;5.16;62.46
63976;DHT22;50167;47.958;21.780;2023-12-20T10:43:24;6.17;65.70
63976;DHT22;50167;47.958;21.780;2023-12-20T10:45:52;6.73;63.06
63976;DHT22;50167;47.958;21.780;2023-12-20T10:48:18;7.03;62.22
63976;DHT22;50167;47.958;21.780;2023-12-20T10:50:47;7.26;61.05
63976;DHT22;50167;47.958;21.780;2023-12-20T10:53:13;7.45;61.71
63976;DHT22;50167;47.958;21.780;2023-12-20T10:55:41;7.60;60.96
63976;DHT22;50167;47.958;21.780;2023-12-20T10:58:09;7.87;59.99
63976;DHT22;50167;47.958;21.780;2023-12-20T11:00:40;7.98;58.29
63976;DHT22;50167;47.958;21.780;2023-12-20T11:03:08;7.04;57.05
63976;DHT22;50167;47.958;21.780;2023-12-20T11:06:02;5.96;60.12
63976;DHT22;50167;47.958;21.780;2023-12-20T11:08:36;5.14;63.43
63976;DHT22;50167;47.958;21.780;2023-12-20T11:11:35;6.00;66.88
63976;DHT22;50167;47.958;21.780;2023-12-20T11:14:06;6.87;64.88
63976;DHT22;50167;47.958;21.780;2023-12-20T11:16:37;7.42;62.48
63976;DHT22;50167;47.958;21.780;2023-12-20T11:19:07;7.77;60.63
63976;DHT22;50167;47.958;21.780;2023-12-20T11:21:33;7.94;60.00
63976;DHT22;50167;47.958;21.780;2023-12-20T11:24:00;7.70;59.23
63976;DHT22;50167;47.958;21.780;2023-12-20T11:26:29;6.66;59.38
63976;DHT22;50167;47.958;21.780;2023-12-20T11:29:35;5.66;61.89
63976;DHT22;50167;47.958;21.780;2023-12-20T11:32:04;6.05;66.20
63976;DHT22;50167;47.958;21.780;2023-12-20T11:34:33;6.86;64.37
63976;DHT22;50167;47.958;21.780;2023-12-20T11:37:02;7.06;62.25
63976;DHT22;50167;47.958;21.780;2023-12-20T11:39:30;7.24;61.58
63976;DHT22;50167;47.958;21.780;2023-12-20T11:41:57;7.45;61.52
63976;DHT22;50167;47.958;21.780;2023-12-20T11:44:25;7.69;61.48
63976;DHT22;50167;47.958;21.780;2023-12-20T11:46:52;7.84;60.55
63976;DHT22;50167;47.958;21.780;2023-12-20T11:49:25;7.89;60.38
63976;DHT22;50167;47.958;21.780;2023-12-20T11:51:51;8.17;60.57
63976;DHT22;50167;47.958;21.780;2023-12-20T11:54:18;8.41;58.85
63976;DHT22;50167;47.958;21.780;2023-12-20T11:56:45;7.73;58.02
63976;DHT22;50167;47.958;21.780;2023-12-20T11:59:12;6.59;59.26
63976;DHT22;50167;47.958;21.780;2023-12-20T12:01:38;5.60;62.87
63976;DHT22;50167;47.958;21.780;2023-12-20T12:04:05;5.70;65.82
63976;DHT22;50167;47.958;21.780;2023-12-20T12:06:33;6.40;63.56
63976;DHT22;50167;47.958;21.780;2023-12-20T12:08:59;6.63;62.48
63976;DHT22;50167;47.958;21.780;2023-12-20T12:11:26;6.75;62.23
63976;DHT22;50167;47.958;21.780;2023-12-20T12:13:52;7.18;61.73
63976;DHT22;50167;47.958;21.780;2023-12-20T12:16:20;7.57;60.66
63976;DHT22;50167;47.958;21.780;2023-12-20T12:18:57;7.89;60.09
63976;DHT22;50167;47.958;21.780;2023-12-20T12:21:25;7.89;57.25
63976;DHT22;50167;47.958;21.780;2023-12-20T12:23:51;6.59;59.18
63976;DHT22;50167;47.958;21.780;2023-12-20T12:26:17;5.52;60.18
63976;DHT22;50167;47.958;21.780;2023-12-20T12:28:43;5.11;64.12
63976;DHT22;50167;47.958;21.780;2023-12-20T12:31:14;6.08;65.67
63976;DHT22;50167;47.958;21.780;2023-12-20T12:33:50;6.77;63.88
63976;DHT22;50167;47.958;21.780;2023-12-20T12:36:17;7.36;61.56
63976;DHT22;50167;47.958;21.780;2023-12-20T12:38:44;7.57;60.81
63976;DHT22;50167;47.958;21.780;2023-12-20T12:41:13;7.80;59.88
63976;DHT22;50167;47.958;21.780;2023-12-20T12:43:41;8.11;59.21
63976;DHT22;50167;47.958;21.780;2023-12-20T12:46:07;7.63;56.48
63976;DHT22;50167;47.958;21.780;2023-12-20T12:48:33;6.45;58.02
63976;DHT22;50167;47.958;21.780;2023-12-20T12:50:59;5.43;61.87
63976;DHT22;50167;47.958;21.780;2023-12-20T12:53:26;5.18;65.72
63976;DHT22;50167;47.958;21.780;2023-12-20T12:55:58;6.02;66.12
63976;DHT22;50167;47.958;21.780;2023-12-20T13:02:23;7.10;62.67
63976;DHT22;50167;47.958;21.780;2023-12-20T13:04:49;7.07;60.53
63976;DHT22;50167;47.958;21.780;2023-12-20T13:07:15;7.22;60.98
63976;DHT22;50167;47.958;21.780;2023-12-20T13:09:42;7.34;61.19
63976;DHT22;50167;47.958;21.780;2023-12-20T13:12:08;7.42;60.99
63976;DHT22;50167;47.958;21.780;2023-12-20T13:14:35;7.59;60.63
63976;DHT22;50167;47.958;21.780;2023-12-20T13:17:03;7.24;59.01
63976;DHT22;50167;47.958;21.780;2023-12-20T13:19:30;6.31;58.68
63976;DHT22;50167;47.958;21.780;2023-12-20T13:21:57;5.33;61.06
63976;DHT22;50167;47.958;21.780;2023-12-20T13:24:24;5.04;65.30
63976;DHT22;50167;47.958;21.780;2023-12-20T13:26:50;5.79;65.91
63976;DHT22;50167;47.958;21.780;2023-12-20T13:29:17;6.14;64.57
63976;DHT22;50167;47.958;21.780;2023-12-20T13:31:43;6.57;64.21
63976;DHT22;50167;47.958;21.780;2023-12-20T13:34:09;6.79;62.02
63976;DHT22;50167;47.958;21.780;2023-12-20T13:36:35;6.80;61.74
63976;DHT22;50167;47.958;21.780;2023-12-20T13:39:03;7.14;61.69
63976;DHT22;50167;47.958;21.780;2023-12-20T13:41:31;7.15;60.92
63976;DHT22;50167;47.958;21.780;2023-12-20T13:43:57;7.04;61.76
63976;DHT22;50167;47.958;21.780;2023-12-20T13:46:23;7.39;61.51
63976;DHT22;50167;47.958;21.780;2023-12-20T13:48:50;7.42;59.90
63976;DHT22;50167;47.958;21.780;2023-12-20T13:51:16;7.43;60.69
63976;DHT22;50167;47.958;21.780;2023-12-20T13:53:43;7.52;60.36
63976;DHT22;50167;47.958;21.780;2023-12-20T13:56:10;7.57;60.33
63976;DHT22;50167;47.958;21.780;2023-12-20T13:58:36;7.41;59.99
63976;DHT22;50167;47.958;21.780;2023-12-20T14:01:02;7.24;60.06
63976;DHT22;50167;47.958;21.780;2023-12-20T14:03:29;7.04;60.47
63976;DHT22;50167;47.958;21.780;2023-12-20T14:05:57;6.96;60.93
63976;DHT22;50167;47.958;21.780;2023-12-20T14:08:23;7.01;61.29
63976;DHT22;50167;47.958;21.780;2023-12-20T14:10:49;7.07;60.92
63976;DHT22;50167;47.958;21.780;2023-12-20T14:13:16;7.04;60.80
63976;DHT22;50167;47.958;21.780;2023-12-20T14:15:42;7.10;61.28
63976;DHT22;50167;47.958;21.780;2023-12-20T14:18:08;7.18;60.60
63976;DHT22;50167;47.958;21.780;2023-12-20T14:20:36;6.98;60.30
63976;DHT22;50167;47.958;21.780;2023-12-20T14:23:03;6.93;60.89
63976;DHT22;50167;47.958;21.780;2023-12-20T14:25:29;7.32;61.13
63976;DHT22;50167;47.958;21.780;2023-12-20T14:27:57;7.52;59.55
63976;DHT22;50167;47.958;21.780;2023-12-20T14:30:26;7.00;57.84
63976;DHT22;50167;47.958;21.780;2023-12-20T14:32:54;5.67;58.81
63976;DHT22;50167;47.958;21.780;2023-12-20T14:35:20;4.83;63.55
63976;DHT22;50167;47.958;21.780;2023-12-20T14:37:46;5.26;65.29
63976;DHT22;50167;47.958;21.780;2023-12-20T14:40:12;6.02;64.98
63976;DHT22;50167;47.958;21.780;2023-12-20T14:42:44;6.39;61.97
63976;DHT22;50167;47.958;21.780;2023-12-20T14:45:11;6.29;61.31
63976;DHT22;50167;47.958;21.780;2023-12-20T14:47:39;6.11;61.55
63976;DHT22;50167;47.958;21.780;2023-12-20T14:50:06;6.04;61.85
63976;DHT22;50167;47.958;21.780;2023-12-20T14:52:33;6.11;62.46
63976;DHT22;50167;47.958;21.780;2023-12-20T14:55:01;6.10;61.94
63976;DHT22;50167;47.958;21.780;2023-12-20T14:57:28;5.97;62.03
63976;DHT22;50167;47.958;21.780;2023-12-20T14:59:56;5.83;62.25
63976;DHT22;50167;47.958;21.780;2023-12-20T15:02:22;6.12;63.89
63976;DHT22;50167;47.958;21.780;2023-12-20T15:04:49;6.53;62.89
63976;DHT22;50167;47.958;21.780;2023-12-20T15:07:16;6.67;62.41
63976;DHT22;50167;47.958;21.780;2023-12-20T15:09:44;6.66;61.26
63976;DHT22;50167;47.958;21.780;2023-12-20T15:12:12;6.40;61.10
63976;DHT22;50167;47.958;21.780;2023-12-20T15:14:39;6.49;62.19
63976;DHT22;50167;47.958;21.780;2023-12-20T15:17:05;6.36;61.26
63976;DHT22;50167;47.958;21.780;2023-12-20T15:19:31;6.04;61.29
63976;DHT22;50167;47.958;21.780;2023-12-20T15:21:57;6.00;62.19
63976;DHT22;50167;47.958;21.780;2023-12-20T15:24:25;5.83;62.13
63976;DHT22;50167;47.958;21.780;2023-12-20T15:26:54;5.73;62.60
63976;DHT22;50167;47.958;21.780;2023-12-20T15:29:21;6.57;65.22
63976;DHT22;50167;47.958;21.780;2023-12-20T15:31:47;7.19;61.72